sensor_id;sensor_type;location;lat;lon;timestamp;P1;durP1;ratioP1;P2;durP2;ratioP2
55007;SDS011;40902;45.116;21.296;2023-07-13T00:02:15;12.23;;;6.72;;
55007;SDS011;40902;45.116;21.296;2023-07-13T00:04:41;14.25;;;6.78;;
55007;SDS011;40902;45.116;21.296;2023-07-13T00:07:10;12.50;;;6.45;;
55007;SDS011;40902;45.116;21.296;2023-07-13T00:09:39;13.52;;;6.80;;
55007;SDS011;40902;45.116;21.296;2023-07-13T00:12:19;10.70;;;6.13;;
55007;SDS011;40902;45.116;21.296;2023-07-13T00:14:49;11.25;;;7.15;;
55007;SDS011;40902;45.116;21.296;2023-07-13T00:17:15;17.27;;;7.10;;
55007;SDS011;40902;45.116;21.296;2023-07-13T00:19:46;10.38;;;6.85;;
55007;SDS011;40902;45.116;21.296;2023-07-13T00:22:13;12.95;;;7.32;;
55007;SDS011;40902;45.116;21.296;2023-07-13T00:24:39;12.95;;;7.47;;
55007;SDS011;40902;45.116;21.296;2023-07-13T00:27:10;15.07;;;7.40;;
55007;SDS011;40902;45.116;21.296;2023-07-13T00:29:36;13.90;;;7.40;;
55007;SDS011;40902;45.116;21.296;2023-07-13T00:32:05;13.43;;;8.48;;
55007;SDS011;40902;45.116;21.296;2023-07-13T00:34:32;17.48;;;8.27;;
55007;SDS011;40902;45.116;21.296;2023-07-13T00:36:58;14.65;;;7.82;;
55007;SDS011;40902;45.116;21.296;2023-07-13T00:39:24;14.77;;;9.40;;
55007;SDS011;40902;45.116;21.296;2023-07-13T00:41:50;16.45;;;8.43;;
55007;SDS011;40902;45.116;21.296;2023-07-13T00:44:18;16.75;;;8.90;;
55007;SDS011;40902;45.116;21.296;2023-07-13T00:46:44;13.85;;;9.85;;
55007;SDS011;40902;45.116;21.296;2023-07-13T00:49:12;14.38;;;8.93;;
55007;SDS011;40902;45.116;21.296;2023-07-13T00:51:40;17.80;;;9.13;;
55007;SDS011;40902;45.116;21.296;2023-07-13T00:54:15;13.85;;;8.95;;
55007;SDS011;40902;45.116;21.296;2023-07-13T00:56:43;13.90;;;9.85;;
55007;SDS011;40902;45.116;21.296;2023-07-13T00:59:10;13.88;;;8.95;;
55007;SDS011;40902;45.116;21.296;2023-07-13T01:01:40;15.35;;;9.00;;
55007;SDS011;40902;45.116;21.296;2023-07-13T01:04:06;16.33;;;10.35;;
55007;SDS011;40902;45.116;21.296;2023-07-13T01:06:34;14.75;;;10.13;;
55007;SDS011;40902;45.116;21.296;2023-07-13T01:09:00;17.48;;;9.57;;
55007;SDS011;40902;45.116;21.296;2023-07-13T01:11:27;16.25;;;9.95;;
55007;SDS011;40902;45.116;21.296;2023-07-13T01:13:56;18.25;;;9.05;;
55007;SDS011;40902;45.116;21.296;2023-07-13T01:16:27;17.40;;;9.43;;
55007;SDS011;40902;45.116;21.296;2023-07-13T01:18:54;13.27;;;9.02;;
55007;SDS011;40902;45.116;21.296;2023-07-13T01:21:25;14.60;;;9.25;;
55007;SDS011;40902;45.116;21.296;2023-07-13T01:23:51;14.45;;;9.38;;
55007;SDS011;40902;45.116;21.296;2023-07-13T01:26:18;18.52;;;10.43;;
55007;SDS011;40902;45.116;21.296;2023-07-13T01:28:46;15.07;;;9.05;;
55007;SDS011;40902;45.116;21.296;2023-07-13T01:31:12;16.30;;;9.60;;
55007;SDS011;40902;45.116;21.296;2023-07-13T01:33:39;15.05;;;9.20;;
55007;SDS011;40902;45.116;21.296;2023-07-13T01:36:08;19.95;;;9.40;;
55007;SDS011;40902;45.116;21.296;2023-07-13T01:38:34;11.75;;;9.25;;
55007;SDS011;40902;45.116;21.296;2023-07-13T01:41:01;14.75;;;9.23;;
55007;SDS011;40902;45.116;21.296;2023-07-13T01:43:27;13.27;;;9.38;;
55007;SDS011;40902;45.116;21.296;2023-07-13T01:45:53;13.65;;;8.82;;
55007;SDS011;40902;45.116;21.296;2023-07-13T01:48:19;16.77;;;9.68;;
55007;SDS011;40902;45.116;21.296;2023-07-13T01:50:48;15.32;;;9.02;;
55007;SDS011;40902;45.116;21.296;2023-07-13T01:53:16;13.50;;;9.30;;
55007;SDS011;40902;45.116;21.296;2023-07-13T01:55:47;16.42;;;9.38;;
55007;SDS011;40902;45.116;21.296;2023-07-13T01:58:13;15.93;;;9.40;;
55007;SDS011;40902;45.116;21.296;2023-07-13T02:00:39;16.08;;;9.48;;
55007;SDS011;40902;45.116;21.296;2023-07-13T02:03:05;13.00;;;8.77;;
55007;SDS011;40902;45.116;21.296;2023-07-13T02:05:31;13.88;;;9.52;;
55007;SDS011;40902;45.116;21.296;2023-07-13T02:07:58;18.70;;;9.57;;
55007;SDS011;40902;45.116;21.296;2023-07-13T02:10:24;15.50;;;8.93;;
55007;SDS011;40902;45.116;21.296;2023-07-13T02:12:50;13.52;;;9.48;;
55007;SDS011;40902;45.116;21.296;2023-07-13T02:15:16;12.73;;;9.45;;
55007;SDS011;40902;45.116;21.296;2023-07-13T02:17:42;11.20;;;9.40;;
55007;SDS011;40902;45.116;21.296;2023-07-13T02:20:09;14.75;;;9.07;;
55007;SDS011;40902;45.116;21.296;2023-07-13T02:22:35;13.68;;;9.35;;
55007;SDS011;40902;45.116;21.296;2023-07-13T02:25:03;12.45;;;8.90;;
55007;SDS011;40902;45.116;21.296;2023-07-13T02:27:29;13.32;;;9.13;;
55007;SDS011;40902;45.116;21.296;2023-07-13T02:29:56;12.25;;;8.80;;
55007;SDS011;40902;45.116;21.296;2023-07-13T02:32:22;16.38;;;9.55;;
55007;SDS011;40902;45.116;21.296;2023-07-13T02:34:50;14.77;;;9.13;;
55007;SDS011;40902;45.116;21.296;2023-07-13T02:37:17;13.18;;;8.80;;
55007;SDS011;40902;45.116;21.296;2023-07-13T02:39:43;12.90;;;9.07;;
55007;SDS011;40902;45.116;21.296;2023-07-13T02:42:09;10.38;;;8.50;;
55007;SDS011;40902;45.116;21.296;2023-07-13T02:44:35;13.80;;;8.88;;
55007;SDS011;40902;45.116;21.296;2023-07-13T02:47:04;11.90;;;8.60;;
55007;SDS011;40902;45.116;21.296;2023-07-13T02:49:30;13.32;;;8.75;;
55007;SDS011;40902;45.116;21.296;2023-07-13T02:51:56;10.20;;;8.30;;
55007;SDS011;40902;45.116;21.296;2023-07-13T02:54:22;11.90;;;8.52;;
55007;SDS011;40902;45.116;21.296;2023-07-13T02:56:48;12.45;;;8.95;;
55007;SDS011;40902;45.116;21.296;2023-07-13T02:59:14;15.15;;;8.90;;
55007;SDS011;40902;45.116;21.296;2023-07-13T03:01:40;13.25;;;8.65;;
55007;SDS011;40902;45.116;21.296;2023-07-13T03:04:06;12.63;;;8.73;;
55007;SDS011;40902;45.116;21.296;2023-07-13T03:06:35;14.65;;;9.55;;
55007;SDS011;40902;45.116;21.296;2023-07-13T03:09:01;13.68;;;9.70;;
55007;SDS011;40902;45.116;21.296;2023-07-13T03:11:28;16.58;;;9.00;;
55007;SDS011;40902;45.116;21.296;2023-07-13T03:13:55;13.20;;;9.43;;
55007;SDS011;40902;45.116;21.296;2023-07-13T03:16:23;13.25;;;9.48;;
55007;SDS011;40902;45.116;21.296;2023-07-13T03:18:50;13.65;;;8.82;;
55007;SDS011;40902;45.116;21.296;2023-07-13T03:21:16;14.07;;;8.98;;
55007;SDS011;40902;45.116;21.296;2023-07-13T03:23:43;13.15;;;8.63;;
55007;SDS011;40902;45.116;21.296;2023-07-13T03:26:10;12.52;;;8.85;;
55007;SDS011;40902;45.116;21.296;2023-07-13T03:28:37;12.60;;;8.77;;
55007;SDS011;40902;45.116;21.296;2023-07-13T03:31:05;14.23;;;9.20;;
55007;SDS011;40902;45.116;21.296;2023-07-13T03:33:32;13.95;;;8.82;;
55007;SDS011;40902;45.116;21.296;2023-07-13T03:35:58;15.55;;;8.40;;
55007;SDS011;40902;45.116;21.296;2023-07-13T03:38:25;14.27;;;9.13;;
55007;SDS011;40902;45.116;21.296;2023-07-13T03:40:51;12.45;;;8.20;;
55007;SDS011;40902;45.116;21.296;2023-07-13T03:43:17;11.27;;;8.65;;
55007;SDS011;40902;45.116;21.296;2023-07-13T03:45:46;75.25;;;13.40;;
55007;SDS011;40902;45.116;21.296;2023-07-13T03:48:12;15.20;;;9.32;;
55007;SDS011;40902;45.116;21.296;2023-07-13T03:50:38;13.20;;;8.60;;
55007;SDS011;40902;45.116;21.296;2023-07-13T03:53:04;12.85;;;9.32;;
55007;SDS011;40902;45.116;21.296;2023-07-13T03:55:31;12.50;;;8.90;;
55007;SDS011;40902;45.116;21.296;2023-07-13T03:58:00;18.63;;;8.90;;
55007;SDS011;40902;45.116;21.296;2023-07-13T04:00:27;14.10;;;8.95;;
55007;SDS011;40902;45.116;21.296;2023-07-13T04:02:53;12.90;;;8.80;;
55007;SDS011;40902;45.116;21.296;2023-07-13T04:05:19;12.90;;;8.93;;
55007;SDS011;40902;45.116;21.296;2023-07-13T04:07:45;13.73;;;9.30;;
55007;SDS011;40902;45.116;21.296;2023-07-13T04:10:11;12.18;;;9.25;;
55007;SDS011;40902;45.116;21.296;2023-07-13T04:12:37;15.77;;;9.38;;
55007;SDS011;40902;45.116;21.296;2023-07-13T04:15:03;15.13;;;8.43;;
55007;SDS011;40902;45.116;21.296;2023-07-13T04:17:29;13.65;;;8.80;;
55007;SDS011;40902;45.116;21.296;2023-07-13T04:19:55;12.32;;;8.82;;
55007;SDS011;40902;45.116;21.296;2023-07-13T04:22:21;14.45;;;9.65;;
55007;SDS011;40902;45.116;21.296;2023-07-13T04:24:47;11.50;;;9.60;;
55007;SDS011;40902;45.116;21.296;2023-07-13T04:27:14;12.57;;;8.75;;
55007;SDS011;40902;45.116;21.296;2023-07-13T04:29:43;14.80;;;9.30;;
55007;SDS011;40902;45.116;21.296;2023-07-13T04:32:09;12.50;;;8.50;;
55007;SDS011;40902;45.116;21.296;2023-07-13T04:34:35;11.98;;;8.80;;
55007;SDS011;40902;45.116;21.296;2023-07-13T04:37:01;13.70;;;9.25;;
55007;SDS011;40902;45.116;21.296;2023-07-13T04:39:27;14.40;;;9.02;;
55007;SDS011;40902;45.116;21.296;2023-07-13T04:41:53;15.23;;;9.07;;
55007;SDS011;40902;45.116;21.296;2023-07-13T04:44:20;15.55;;;9.73;;
55007;SDS011;40902;45.116;21.296;2023-07-13T04:46:47;13.77;;;9.95;;
55007;SDS011;40902;45.116;21.296;2023-07-13T04:49:13;11.73;;;9.65;;
55007;SDS011;40902;45.116;21.296;2023-07-13T04:51:39;12.27;;;9.45;;
55007;SDS011;40902;45.116;21.296;2023-07-13T04:54:07;10.90;;;8.10;;
55007;SDS011;40902;45.116;21.296;2023-07-13T04:56:34;10.57;;;8.98;;
55007;SDS011;40902;45.116;21.296;2023-07-13T04:59:00;15.00;;;9.23;;
55007;SDS011;40902;45.116;21.296;2023-07-13T05:01:29;11.75;;;8.90;;
55007;SDS011;40902;45.116;21.296;2023-07-13T05:03:55;14.05;;;9.43;;
55007;SDS011;40902;45.116;21.296;2023-07-13T05:06:24;15.43;;;9.63;;
55007;SDS011;40902;45.116;21.296;2023-07-13T05:08:50;11.27;;;9.25;;
55007;SDS011;40902;45.116;21.296;2023-07-13T05:11:17;14.60;;;8.93;;
55007;SDS011;40902;45.116;21.296;2023-07-13T05:13:48;13.05;;;9.25;;
55007;SDS011;40902;45.116;21.296;2023-07-13T05:16:14;11.80;;;9.48;;
55007;SDS011;40902;45.116;21.296;2023-07-13T05:18:41;15.77;;;9.55;;
55007;SDS011;40902;45.116;21.296;2023-07-13T05:21:08;13.60;;;9.75;;
55007;SDS011;40902;45.116;21.296;2023-07-13T05:23:35;16.63;;;9.23;;
55007;SDS011;40902;45.116;21.296;2023-07-13T05:26:02;13.68;;;9.85;;
55007;SDS011;40902;45.116;21.296;2023-07-13T05:28:29;16.58;;;10.25;;
55007;SDS011;40902;45.116;21.296;2023-07-13T05:30:56;15.45;;;9.52;;
55007;SDS011;40902;45.116;21.296;2023-07-13T05:33:22;20.65;;;10.23;;
55007;SDS011;40902;45.116;21.296;2023-07-13T05:35:48;16.20;;;10.45;;
55007;SDS011;40902;45.116;21.296;2023-07-13T05:38:14;13.38;;;10.27;;
55007;SDS011;40902;45.116;21.296;2023-07-13T05:40:42;15.85;;;10.25;;
55007;SDS011;40902;45.116;21.296;2023-07-13T05:43:08;14.43;;;11.15;;
55007;SDS011;40902;45.116;21.296;2023-07-13T05:45:34;14.35;;;11.07;;
55007;SDS011;40902;45.116;21.296;2023-07-13T05:48:00;13.73;;;11.50;;
55007;SDS011;40902;45.116;21.296;2023-07-13T05:50:26;17.05;;;11.35;;
55007;SDS011;40902;45.116;21.296;2023-07-13T05:52:53;15.93;;;12.10;;
55007;SDS011;40902;45.116;21.296;2023-07-13T05:55:19;16.88;;;13.30;;
55007;SDS011;40902;45.116;21.296;2023-07-13T05:57:45;19.88;;;13.95;;
55007;SDS011;40902;45.116;21.296;2023-07-13T06:00:14;14.63;;;12.68;;
55007;SDS011;40902;45.116;21.296;2023-07-13T06:02:40;15.35;;;12.73;;
55007;SDS011;40902;45.116;21.296;2023-07-13T06:05:06;12.00;;;10.52;;
55007;SDS011;40902;45.116;21.296;2023-07-13T06:07:32;17.20;;;11.18;;
55007;SDS011;40902;45.116;21.296;2023-07-13T06:09:58;13.48;;;10.30;;
55007;SDS011;40902;45.116;21.296;2023-07-13T06:12:25;13.35;;;10.82;;
55007;SDS011;40902;45.116;21.296;2023-07-13T06:14:53;15.35;;;10.80;;
55007;SDS011;40902;45.116;21.296;2023-07-13T06:17:19;17.08;;;11.25;;
55007;SDS011;40902;45.116;21.296;2023-07-13T06:19:45;15.82;;;11.32;;
55007;SDS011;40902;45.116;21.296;2023-07-13T06:22:12;14.18;;;11.63;;
55007;SDS011;40902;45.116;21.296;2023-07-13T06:24:38;15.52;;;11.55;;
55007;SDS011;40902;45.116;21.296;2023-07-13T06:27:04;15.23;;;11.27;;
55007;SDS011;40902;45.116;21.296;2023-07-13T06:29:30;16.20;;;11.95;;
55007;SDS011;40902;45.116;21.296;2023-07-13T06:31:56;16.00;;;11.80;;
55007;SDS011;40902;45.116;21.296;2023-07-13T06:34:22;14.10;;;11.55;;
55007;SDS011;40902;45.116;21.296;2023-07-13T06:36:48;15.95;;;12.32;;
55007;SDS011;40902;45.116;21.296;2023-07-13T06:39:17;14.90;;;11.43;;
55007;SDS011;40902;45.116;21.296;2023-07-13T06:41:43;15.88;;;11.40;;
55007;SDS011;40902;45.116;21.296;2023-07-13T06:44:09;11.90;;;10.60;;
55007;SDS011;40902;45.116;21.296;2023-07-13T06:46:38;14.85;;;11.07;;
55007;SDS011;40902;45.116;21.296;2023-07-13T06:49:04;15.82;;;11.10;;
55007;SDS011;40902;45.116;21.296;2023-07-13T06:51:30;13.68;;;10.93;;
55007;SDS011;40902;45.116;21.296;2023-07-13T06:53:56;15.15;;;10.73;;
55007;SDS011;40902;45.116;21.296;2023-07-13T06:56:22;13.40;;;10.38;;
55007;SDS011;40902;45.116;21.296;2023-07-13T06:58:48;12.13;;;10.63;;
55007;SDS011;40902;45.116;21.296;2023-07-13T07:01:14;16.98;;;12.38;;
55007;SDS011;40902;45.116;21.296;2023-07-13T07:03:41;13.95;;;10.77;;
55007;SDS011;40902;45.116;21.296;2023-07-13T07:06:15;18.95;;;10.70;;
55007;SDS011;40902;45.116;21.296;2023-07-13T07:08:42;11.32;;;9.93;;
55007;SDS011;40902;45.116;21.296;2023-07-13T07:11:14;14.68;;;9.27;;
55007;SDS011;40902;45.116;21.296;2023-07-13T07:13:43;15.27;;;10.00;;
55007;SDS011;40902;45.116;21.296;2023-07-13T07:16:09;15.20;;;9.88;;
55007;SDS011;40902;45.116;21.296;2023-07-13T07:18:35;11.40;;;9.65;;
55007;SDS011;40902;45.116;21.296;2023-07-13T07:21:01;11.68;;;9.52;;
55007;SDS011;40902;45.116;21.296;2023-07-13T07:23:28;14.23;;;9.68;;
55007;SDS011;40902;45.116;21.296;2023-07-13T07:25:54;11.45;;;9.27;;
55007;SDS011;40902;45.116;21.296;2023-07-13T07:28:20;11.95;;;8.70;;
55007;SDS011;40902;45.116;21.296;2023-07-13T07:30:46;14.07;;;9.48;;
55007;SDS011;40902;45.116;21.296;2023-07-13T07:33:12;11.10;;;9.38;;
55007;SDS011;40902;45.116;21.296;2023-07-13T07:35:39;11.32;;;9.43;;
55007;SDS011;40902;45.116;21.296;2023-07-13T07:38:07;12.98;;;9.35;;
55007;SDS011;40902;45.116;21.296;2023-07-13T07:40:37;11.68;;;8.98;;
55007;SDS011;40902;45.116;21.296;2023-07-13T07:43:03;12.45;;;9.65;;
55007;SDS011;40902;45.116;21.296;2023-07-13T07:45:30;13.23;;;9.00;;
55007;SDS011;40902;45.116;21.296;2023-07-13T07:47:56;14.55;;;9.48;;
55007;SDS011;40902;45.116;21.296;2023-07-13T07:50:24;13.38;;;10.50;;
55007;SDS011;40902;45.116;21.296;2023-07-13T07:52:50;11.98;;;9.80;;
55007;SDS011;40902;45.116;21.296;2023-07-13T07:55:16;11.68;;;8.88;;
55007;SDS011;40902;45.116;21.296;2023-07-13T07:57:45;12.55;;;9.23;;
55007;SDS011;40902;45.116;21.296;2023-07-13T08:00:11;10.95;;;8.00;;
55007;SDS011;40902;45.116;21.296;2023-07-13T08:02:40;10.73;;;8.45;;
55007;SDS011;40902;45.116;21.296;2023-07-13T08:05:09;16.17;;;8.80;;
55007;SDS011;40902;45.116;21.296;2023-07-13T08:07:38;10.30;;;6.82;;
55007;SDS011;40902;45.116;21.296;2023-07-13T08:10:07;11.95;;;8.98;;
55007;SDS011;40902;45.116;21.296;2023-07-13T08:12:34;17.60;;;9.75;;
55007;SDS011;40902;45.116;21.296;2023-07-13T08:15:00;13.18;;;9.68;;
55007;SDS011;40902;45.116;21.296;2023-07-13T08:17:26;11.27;;;8.27;;
55007;SDS011;40902;45.116;21.296;2023-07-13T08:19:53;12.55;;;8.05;;
55007;SDS011;40902;45.116;21.296;2023-07-13T08:22:19;12.18;;;8.90;;
55007;SDS011;40902;45.116;21.296;2023-07-13T08:24:45;9.48;;;7.25;;
55007;SDS011;40902;45.116;21.296;2023-07-13T08:27:12;10.88;;;8.13;;
55007;SDS011;40902;45.116;21.296;2023-07-13T08:29:39;8.20;;;7.38;;
55007;SDS011;40902;45.116;21.296;2023-07-13T08:32:06;7.18;;;6.35;;
55007;SDS011;40902;45.116;21.296;2023-07-13T08:34:35;8.80;;;6.85;;
55007;SDS011;40902;45.116;21.296;2023-07-13T08:37:02;10.75;;;8.27;;
55007;SDS011;40902;45.116;21.296;2023-07-13T08:39:29;8.25;;;7.13;;
55007;SDS011;40902;45.116;21.296;2023-07-13T08:41:56;9.63;;;7.30;;
55007;SDS011;40902;45.116;21.296;2023-07-13T08:44:30;8.75;;;7.63;;
55007;SDS011;40902;45.116;21.296;2023-07-13T08:46:59;12.10;;;8.88;;
55007;SDS011;40902;45.116;21.296;2023-07-13T08:49:25;9.88;;;7.22;;
55007;SDS011;40902;45.116;21.296;2023-07-13T08:51:57;12.35;;;9.10;;
55007;SDS011;40902;45.116;21.296;2023-07-13T08:56:58;11.52;;;8.30;;
55007;SDS011;40902;45.116;21.296;2023-07-13T08:59:27;17.92;;;10.57;;
55007;SDS011;40902;45.116;21.296;2023-07-13T09:04:42;13.13;;;8.30;;
55007;SDS011;40902;45.116;21.296;2023-07-13T09:07:18;7.60;;;6.70;;
55007;SDS011;40902;45.116;21.296;2023-07-13T09:12:39;10.98;;;8.88;;
55007;SDS011;40902;45.116;21.296;2023-07-13T09:15:14;14.07;;;8.07;;
55007;SDS011;40902;45.116;21.296;2023-07-13T09:17:48;12.13;;;6.50;;
55007;SDS011;40902;45.116;21.296;2023-07-13T09:22:44;9.10;;;6.40;;
55007;SDS011;40902;45.116;21.296;2023-07-13T09:25:19;11.32;;;7.22;;
55007;SDS011;40902;45.116;21.296;2023-07-13T09:27:47;16.30;;;9.20;;
55007;SDS011;40902;45.116;21.296;2023-07-13T09:32:39;9.40;;;7.60;;
55007;SDS011;40902;45.116;21.296;2023-07-13T09:35:11;8.95;;;6.65;;
55007;SDS011;40902;45.116;21.296;2023-07-13T09:37:38;8.05;;;6.60;;
55007;SDS011;40902;45.116;21.296;2023-07-13T09:40:10;10.68;;;7.65;;
55007;SDS011;40902;45.116;21.296;2023-07-13T09:42:37;13.05;;;7.00;;
55007;SDS011;40902;45.116;21.296;2023-07-13T09:45:06;10.60;;;7.43;;
55007;SDS011;40902;45.116;21.296;2023-07-13T09:47:38;9.43;;;7.55;;
55007;SDS011;40902;45.116;21.296;2023-07-13T09:50:15;13.63;;;9.00;;
55007;SDS011;40902;45.116;21.296;2023-07-13T09:52:45;11.05;;;7.03;;
55007;SDS011;40902;45.116;21.296;2023-07-13T09:57:53;10.02;;;7.28;;
55007;SDS011;40902;45.116;21.296;2023-07-13T10:00:26;13.90;;;10.13;;
55007;SDS011;40902;45.116;21.296;2023-07-13T10:03:01;11.98;;;9.23;;
55007;SDS011;40902;45.116;21.296;2023-07-13T10:05:28;7.90;;;6.40;;
55007;SDS011;40902;45.116;21.296;2023-07-13T10:08:02;14.07;;;9.38;;
55007;SDS011;40902;45.116;21.296;2023-07-13T10:10:31;10.15;;;8.00;;
55007;SDS011;40902;45.116;21.296;2023-07-13T10:12:57;13.73;;;8.05;;
55007;SDS011;40902;45.116;21.296;2023-07-13T10:15:24;11.88;;;8.50;;
55007;SDS011;40902;45.116;21.296;2023-07-13T10:17:54;8.98;;;7.68;;
55007;SDS011;40902;45.116;21.296;2023-07-13T10:20:23;14.27;;;9.38;;
55007;SDS011;40902;45.116;21.296;2023-07-13T10:25:20;11.30;;;8.02;;
55007;SDS011;40902;45.116;21.296;2023-07-13T10:27:47;12.73;;;9.43;;
55007;SDS011;40902;45.116;21.296;2023-07-13T10:30:27;11.05;;;7.22;;
55007;SDS011;40902;45.116;21.296;2023-07-13T10:32:57;11.20;;;7.30;;
55007;SDS011;40902;45.116;21.296;2023-07-13T10:35:23;9.20;;;6.75;;
55007;SDS011;40902;45.116;21.296;2023-07-13T10:37:55;7.75;;;5.85;;
55007;SDS011;40902;45.116;21.296;2023-07-13T10:40:27;11.88;;;7.60;;
55007;SDS011;40902;45.116;21.296;2023-07-13T10:42:55;7.85;;;6.53;;
55007;SDS011;40902;45.116;21.296;2023-07-13T10:45:22;9.07;;;7.50;;
55007;SDS011;40902;45.116;21.296;2023-07-13T10:47:50;10.07;;;6.25;;
55007;SDS011;40902;45.116;21.296;2023-07-13T10:50:24;11.05;;;6.85;;
55007;SDS011;40902;45.116;21.296;2023-07-13T10:52:52;9.75;;;7.88;;
55007;SDS011;40902;45.116;21.296;2023-07-13T10:58:10;14.07;;;8.90;;
55007;SDS011;40902;45.116;21.296;2023-07-13T11:00:43;8.27;;;6.45;;
55007;SDS011;40902;45.116;21.296;2023-07-13T11:03:10;7.90;;;6.13;;
55007;SDS011;40902;45.116;21.296;2023-07-13T11:05:41;10.63;;;6.83;;
55007;SDS011;40902;45.116;21.296;2023-07-13T11:10:52;14.60;;;8.77;;
55007;SDS011;40902;45.116;21.296;2023-07-13T11:18:45;8.73;;;6.60;;
55007;SDS011;40902;45.116;21.296;2023-07-13T11:23:44;12.45;;;8.00;;
55007;SDS011;40902;45.116;21.296;2023-07-13T11:28:56;10.18;;;6.85;;
55007;SDS011;40902;45.116;21.296;2023-07-13T11:31:22;11.90;;;8.30;;
55007;SDS011;40902;45.116;21.296;2023-07-13T11:33:52;8.07;;;6.05;;
55007;SDS011;40902;45.116;21.296;2023-07-13T11:36:19;9.85;;;6.72;;
55007;SDS011;40902;45.116;21.296;2023-07-13T11:41:36;9.88;;;7.22;;
55007;SDS011;40902;45.116;21.296;2023-07-13T11:44:11;10.05;;;7.50;;
55007;SDS011;40902;45.116;21.296;2023-07-13T11:46:46;15.02;;;8.82;;
55007;SDS011;40902;45.116;21.296;2023-07-13T11:49:16;9.50;;;7.07;;
55007;SDS011;40902;45.116;21.296;2023-07-13T11:51:42;10.95;;;7.15;;
55007;SDS011;40902;45.116;21.296;2023-07-13T11:54:15;7.20;;;5.40;;
55007;SDS011;40902;45.116;21.296;2023-07-13T11:56:43;6.45;;;4.80;;
55007;SDS011;40902;45.116;21.296;2023-07-13T11:59:10;7.90;;;5.70;;
55007;SDS011;40902;45.116;21.296;2023-07-13T12:01:41;7.53;;;4.95;;
55007;SDS011;40902;45.116;21.296;2023-07-13T12:04:08;13.27;;;8.32;;
55007;SDS011;40902;45.116;21.296;2023-07-13T12:06:46;9.48;;;7.47;;
55007;SDS011;40902;45.116;21.296;2023-07-13T12:09:13;13.23;;;7.47;;
55007;SDS011;40902;45.116;21.296;2023-07-13T12:11:44;6.80;;;5.57;;
55007;SDS011;40902;45.116;21.296;2023-07-13T12:14:19;9.95;;;7.90;;
55007;SDS011;40902;45.116;21.296;2023-07-13T12:16:49;14.73;;;7.03;;
55007;SDS011;40902;45.116;21.296;2023-07-13T12:19:21;11.48;;;6.97;;
55007;SDS011;40902;45.116;21.296;2023-07-13T12:21:47;8.15;;;6.05;;
55007;SDS011;40902;45.116;21.296;2023-07-13T12:24:17;10.30;;;6.53;;
55007;SDS011;40902;45.116;21.296;2023-07-13T12:26:43;10.38;;;5.50;;
55007;SDS011;40902;45.116;21.296;2023-07-13T12:29:15;9.93;;;6.40;;
55007;SDS011;40902;45.116;21.296;2023-07-13T12:31:43;7.30;;;4.60;;
55007;SDS011;40902;45.116;21.296;2023-07-13T12:34:16;10.07;;;5.53;;
55007;SDS011;40902;45.116;21.296;2023-07-13T12:36:47;9.20;;;5.55;;
55007;SDS011;40902;45.116;21.296;2023-07-13T12:41:43;9.18;;;5.72;;
55007;SDS011;40902;45.116;21.296;2023-07-13T12:44:14;6.82;;;5.18;;
55007;SDS011;40902;45.116;21.296;2023-07-13T12:46:51;6.57;;;4.97;;
55007;SDS011;40902;45.116;21.296;2023-07-13T12:49:18;11.95;;;6.63;;
55007;SDS011;40902;45.116;21.296;2023-07-13T12:51:49;10.60;;;7.05;;
55007;SDS011;40902;45.116;21.296;2023-07-13T12:54:17;13.18;;;7.50;;
55007;SDS011;40902;45.116;21.296;2023-07-13T12:56:44;13.20;;;8.48;;
55007;SDS011;40902;45.116;21.296;2023-07-13T12:59:15;16.30;;;10.13;;
55007;SDS011;40902;45.116;21.296;2023-07-13T13:01:43;8.88;;;7.22;;
55007;SDS011;40902;45.116;21.296;2023-07-13T13:04:11;8.82;;;5.45;;
55007;SDS011;40902;45.116;21.296;2023-07-13T13:06:38;8.02;;;5.60;;
55007;SDS011;40902;45.116;21.296;2023-07-13T13:09:06;7.00;;;5.05;;
55007;SDS011;40902;45.116;21.296;2023-07-13T13:11:35;10.88;;;6.63;;
55007;SDS011;40902;45.116;21.296;2023-07-13T13:14:01;10.18;;;6.72;;
55007;SDS011;40902;45.116;21.296;2023-07-13T13:16:29;9.73;;;7.32;;
55007;SDS011;40902;45.116;21.296;2023-07-13T13:19:16;17.00;;;7.97;;
55007;SDS011;40902;45.116;21.296;2023-07-13T13:21:43;11.20;;;7.15;;
55007;SDS011;40902;45.116;21.296;2023-07-13T13:24:13;10.85;;;7.32;;
55007;SDS011;40902;45.116;21.296;2023-07-13T13:26:40;9.02;;;5.80;;
55007;SDS011;40902;45.116;21.296;2023-07-13T13:29:11;13.18;;;7.25;;
55007;SDS011;40902;45.116;21.296;2023-07-13T13:31:38;13.32;;;7.43;;
55007;SDS011;40902;45.116;21.296;2023-07-13T13:34:07;14.73;;;7.13;;
55007;SDS011;40902;45.116;21.296;2023-07-13T13:36:33;8.90;;;6.75;;
55007;SDS011;40902;45.116;21.296;2023-07-13T13:38:59;15.68;;;6.85;;
55007;SDS011;40902;45.116;21.296;2023-07-13T13:41:28;10.60;;;6.22;;
55007;SDS011;40902;45.116;21.296;2023-07-13T13:43:54;14.07;;;8.30;;
55007;SDS011;40902;45.116;21.296;2023-07-13T13:46:21;15.75;;;6.78;;
55007;SDS011;40902;45.116;21.296;2023-07-13T13:48:50;13.93;;;7.32;;
55007;SDS011;40902;45.116;21.296;2023-07-13T13:51:19;12.48;;;6.93;;
55007;SDS011;40902;45.116;21.296;2023-07-13T13:53:46;12.73;;;6.55;;
55007;SDS011;40902;45.116;21.296;2023-07-13T13:56:12;12.18;;;6.57;;
55007;SDS011;40902;45.116;21.296;2023-07-13T13:58:39;19.05;;;6.53;;
55007;SDS011;40902;45.116;21.296;2023-07-13T14:01:08;12.38;;;7.15;;
55007;SDS011;40902;45.116;21.296;2023-07-13T14:03:36;11.73;;;7.85;;
55007;SDS011;40902;45.116;21.296;2023-07-13T14:06:02;17.05;;;7.40;;
55007;SDS011;40902;45.116;21.296;2023-07-13T14:08:28;14.07;;;7.40;;
55007;SDS011;40902;45.116;21.296;2023-07-13T14:10:55;11.60;;;7.00;;
55007;SDS011;40902;45.116;21.296;2023-07-13T14:13:27;11.48;;;7.38;;
55007;SDS011;40902;45.116;21.296;2023-07-13T14:15:54;11.60;;;7.55;;
55007;SDS011;40902;45.116;21.296;2023-07-13T14:18:20;14.65;;;7.90;;
55007;SDS011;40902;45.116;21.296;2023-07-13T14:20:47;11.75;;;7.93;;
55007;SDS011;40902;45.116;21.296;2023-07-13T14:23:14;15.38;;;7.65;;
55007;SDS011;40902;45.116;21.296;2023-07-13T14:25:40;15.02;;;7.82;;
55007;SDS011;40902;45.116;21.296;2023-07-13T14:28:22;16.48;;;8.27;;
55007;SDS011;40902;45.116;21.296;2023-07-13T14:30:49;15.57;;;8.02;;
55007;SDS011;40902;45.116;21.296;2023-07-13T14:33:19;17.33;;;7.63;;
55007;SDS011;40902;45.116;21.296;2023-07-13T14:35:45;13.93;;;8.05;;
55007;SDS011;40902;45.116;21.296;2023-07-13T14:38:13;13.95;;;7.28;;
55007;SDS011;40902;45.116;21.296;2023-07-13T14:40:39;12.15;;;8.25;;
55007;SDS011;40902;45.116;21.296;2023-07-13T14:43:09;16.17;;;7.43;;
55007;SDS011;40902;45.116;21.296;2023-07-13T14:45:35;12.13;;;7.95;;
55007;SDS011;40902;45.116;21.296;2023-07-13T14:48:08;12.00;;;8.15;;
55007;SDS011;40902;45.116;21.296;2023-07-13T14:53:05;15.73;;;8.82;;
55007;SDS011;40902;45.116;21.296;2023-07-13T14:55:31;11.13;;;7.78;;
55007;SDS011;40902;45.116;21.296;2023-07-13T14:57:57;15.45;;;8.82;;
55007;SDS011;40902;45.116;21.296;2023-07-13T15:00:23;9.85;;;8.13;;
55007;SDS011;40902;45.116;21.296;2023-07-13T15:02:51;12.50;;;7.97;;
55007;SDS011;40902;45.116;21.296;2023-07-13T15:05:23;14.25;;;7.93;;
55007;SDS011;40902;45.116;21.296;2023-07-13T15:07:50;12.77;;;7.50;;